Terminal Aerodrome Forecast
Issued by NWS

Home | Current Version | Previous Version | Text Only | Print | Product List | Glossary On
Versions: 1 2 3 4 5 6 7 8 9 10 11 12
173
FTUS42 KTAE 211725
TAFABY
TAF
KABY 211725Z 2118/2218 10006KT P6SM BKN050
     FM212000 13006KT P6SM -RA BKN030
     FM220300 02003KT P6SM BKN025
     FM220900 01006KT 3SM BR OVC015
     FM221400 02006KT P6SM BKN015=

USA.gov is the U.S. government's official web portal to all federal, state and local government web resources and services.